createdAt,value
2018-08-04T00:01:32.552Z,26.49
2018-08-04T00:05:36.091Z,26.47
2018-08-04T00:09:39.621Z,26.44
2018-08-04T00:13:43.151Z,26.38
2018-08-04T00:17:47.838Z,26.31
2018-08-04T00:21:51.325Z,26.22
2018-08-04T00:25:55.120Z,26.18
2018-08-04T00:29:58.695Z,26.15
2018-08-04T00:34:02.150Z,26.13
2018-08-04T00:38:06.038Z,26.11
2018-08-04T00:42:11.634Z,26.10
2018-08-04T00:46:15.339Z,26.07
2018-08-04T00:50:18.849Z,26.03
2018-08-04T00:54:22.327Z,26.00
2018-08-04T00:58:25.849Z,25.93
2018-08-04T01:02:29.334Z,25.89
2018-08-04T01:06:32.768Z,25.86
2018-08-04T01:10:36.374Z,25.84
2018-08-04T01:14:39.867Z,25.79
2018-08-04T01:18:43.395Z,25.74
2018-08-04T01:22:46.937Z,25.72
2018-08-04T01:26:50.454Z,25.69
2018-08-04T01:30:53.982Z,25.64
2018-08-04T01:34:57.469Z,25.58
2018-08-04T01:39:01.002Z,25.50
2018-08-04T01:43:04.490Z,25.45
2018-08-04T01:47:08.005Z,25.42
2018-08-04T01:51:11.470Z,25.38
2018-08-04T01:55:14.951Z,25.29
2018-08-04T01:59:20.147Z,25.20
2018-08-04T02:03:24.856Z,25.15
2018-08-04T02:07:28.579Z,25.11
2018-08-04T02:11:32.146Z,25.07
2018-08-04T02:15:35.859Z,25.02
2018-08-04T02:19:39.531Z,24.97
2018-08-04T02:23:43.082Z,24.92
2018-08-04T02:27:46.596Z,24.85
2018-08-04T02:31:50.123Z,24.80
2018-08-04T02:35:53.689Z,24.77
2018-08-04T02:39:57.209Z,24.73
2018-08-04T02:44:00.703Z,24.70
2018-08-04T02:48:04.194Z,24.69
2018-08-04T02:52:07.708Z,24.65
2018-08-04T02:56:11.244Z,24.59
2018-08-04T03:00:14.730Z,24.56
2018-08-04T03:04:18.208Z,24.53
2018-08-04T03:08:21.722Z,24.50
2018-08-04T03:12:25.180Z,24.49
2018-08-04T03:16:28.652Z,24.48
2018-08-04T03:20:32.144Z,24.46
2018-08-04T03:24:35.689Z,24.44
2018-08-04T03:28:39.100Z,24.41
2018-08-04T03:32:42.641Z,24.39
2018-08-04T03:36:46.109Z,24.35
2018-08-04T03:40:49.632Z,24.32
2018-08-04T03:44:53.091Z,24.31
2018-08-04T03:48:56.599Z,24.30
2018-08-04T03:53:00.163Z,24.29
2018-08-04T03:57:03.703Z,24.27
2018-08-04T04:01:07.198Z,24.21
2018-08-04T04:05:10.671Z,24.18
2018-08-04T04:09:14.107Z,24.13
2018-08-04T04:13:17.707Z,24.10
2018-08-04T04:17:21.217Z,24.10
2018-08-04T04:21:24.814Z,24.08
2018-08-04T04:25:28.290Z,24.08
2018-08-04T04:29:31.795Z,24.06
2018-08-04T04:33:35.250Z,24.07
2018-08-04T04:37:38.733Z,24.03
2018-08-04T04:41:42.223Z,24.02
2018-08-04T04:45:45.746Z,24.01
2018-08-04T04:49:49.287Z,24.02
2018-08-04T04:53:52.766Z,24.03
2018-08-04T04:57:56.235Z,24.04
2018-08-04T05:01:59.809Z,24.05
2018-08-04T05:06:03.576Z,24.07
2018-08-04T05:10:07.412Z,24.12
2018-08-04T05:14:10.835Z,24.19
2018-08-04T05:18:14.324Z,24.25
2018-08-04T05:22:17.835Z,24.39
2018-08-04T05:26:21.341Z,24.55
2018-08-04T05:30:24.849Z,24.70
2018-08-04T05:34:28.373Z,24.89
2018-08-04T05:38:31.877Z,25.10
2018-08-04T05:42:35.494Z,25.30
2018-08-04T05:46:39.027Z,25.50
2018-08-04T05:50:42.598Z,25.74
2018-08-04T05:54:46.156Z,25.88
2018-08-04T05:58:49.659Z,26.07
2018-08-04T06:02:53.149Z,26.31
2018-08-04T06:06:56.646Z,26.57
2018-08-04T06:11:00.430Z,26.81
2018-08-04T06:15:03.967Z,26.99
2018-08-04T06:19:07.451Z,27.19
2018-08-04T06:23:10.926Z,27.33
2018-08-04T06:27:14.480Z,27.55
2018-08-04T06:31:18.012Z,27.78
2018-08-04T06:35:21.501Z,28.00
2018-08-04T06:39:24.992Z,28.20
2018-08-04T06:43:28.532Z,28.32
2018-08-04T06:47:32.076Z,28.44
2018-08-04T06:51:35.601Z,28.60
2018-08-04T06:55:39.125Z,28.80
2018-08-04T06:59:42.646Z,29.00
2018-08-04T07:03:46.185Z,29.10
2018-08-04T07:07:49.728Z,29.16
2018-08-04T07:11:53.336Z,29.28
2018-08-04T07:15:56.903Z,29.24
2018-08-04T07:20:00.421Z,29.14
2018-08-04T07:24:04.045Z,29.23
2018-08-04T07:28:07.550Z,29.45
2018-08-04T07:32:11.055Z,29.45
2018-08-04T07:36:14.598Z,29.65
2018-08-04T07:40:18.093Z,29.90
2018-08-04T07:44:22.463Z,30.06
2018-08-04T07:48:26.005Z,30.23
2018-08-04T07:52:29.772Z,30.28
2018-08-04T07:56:33.386Z,30.29
2018-08-04T08:00:36.927Z,30.47
2018-08-04T08:04:41.252Z,30.66
2018-08-04T08:08:45.130Z,30.83
2018-08-04T08:12:49.113Z,31.02
2018-08-04T08:16:52.798Z,31.06
2018-08-04T08:20:56.689Z,31.16
2018-08-04T08:25:00.676Z,31.32
2018-08-04T08:29:04.575Z,31.45
2018-08-04T08:33:08.399Z,31.67
2018-08-04T08:37:12.315Z,31.86
2018-08-04T08:41:16.097Z,32.01
2018-08-04T08:45:20.105Z,32.07
2018-08-04T08:49:24.020Z,32.16
2018-08-04T08:53:27.721Z,32.25
2018-08-04T08:57:31.247Z,32.32
2018-08-04T09:01:34.867Z,32.45
2018-08-04T09:05:38.367Z,32.55
2018-08-04T09:09:41.877Z,32.65
2018-08-04T09:13:45.546Z,32.72
2018-08-04T09:17:49.120Z,32.75
2018-08-04T09:21:52.854Z,32.75
2018-08-04T09:25:56.468Z,32.85
2018-08-04T09:29:59.982Z,32.95
2018-08-04T09:34:03.510Z,33.05
2018-08-04T09:38:07.091Z,33.19
2018-08-04T09:42:10.801Z,33.23
2018-08-04T09:46:14.330Z,33.30
2018-08-04T09:50:17.871Z,33.39
2018-08-04T09:54:21.633Z,33.39
2018-08-04T09:58:25.342Z,33.42
2018-08-04T10:02:29.013Z,33.60
2018-08-04T10:06:32.503Z,33.64
2018-08-04T10:10:36.065Z,33.71
2018-08-04T10:14:39.451Z,33.81
2018-08-04T10:18:42.991Z,33.69
2018-08-04T10:22:46.392Z,33.70
2018-08-04T10:26:49.819Z,33.89
2018-08-04T10:30:53.235Z,34.07
2018-08-04T10:34:56.629Z,34.20
2018-08-04T10:39:00.079Z,34.13
2018-08-04T10:43:03.532Z,34.06
2018-08-04T10:47:07.032Z,34.01
2018-08-04T10:51:10.468Z,33.98
2018-08-04T10:55:13.953Z,34.05
2018-08-04T10:59:17.373Z,34.21
2018-08-04T11:03:20.807Z,34.20
2018-08-04T11:07:24.301Z,34.02
2018-08-04T11:11:27.877Z,33.93
2018-08-04T11:15:31.333Z,34.11
2018-08-04T11:19:34.860Z,34.30
2018-08-04T11:23:38.287Z,34.30
2018-08-04T11:27:41.718Z,34.28
2018-08-04T11:31:45.186Z,34.22
2018-08-04T11:35:48.619Z,34.14
2018-08-04T11:39:51.988Z,34.20
2018-08-04T11:43:55.403Z,34.31
2018-08-04T11:47:58.815Z,34.36
2018-08-04T11:52:02.291Z,34.43
2018-08-04T11:56:05.920Z,34.59
2018-08-04T12:00:09.380Z,34.69
2018-08-04T12:04:12.959Z,34.88
2018-08-04T12:08:16.630Z,34.96
2018-08-04T12:12:20.138Z,34.94
2018-08-04T12:16:23.628Z,34.93
2018-08-04T12:20:27.053Z,34.98
2018-08-04T12:24:30.634Z,34.96
2018-08-04T12:28:34.134Z,34.92
2018-08-04T12:32:37.974Z,34.97
2018-08-04T12:36:41.463Z,35.08
2018-08-04T12:40:45.174Z,35.18
2018-08-04T12:44:48.612Z,35.19
2018-08-04T12:48:52.143Z,35.24
2018-08-04T12:52:55.628Z,35.28
2018-08-04T12:56:59.077Z,35.33
2018-08-04T13:01:02.542Z,35.41
2018-08-04T13:05:06.460Z,35.44
2018-08-04T13:09:10.973Z,35.44
2018-08-04T13:13:14.480Z,35.42
2018-08-04T13:17:17.894Z,35.45
2018-08-04T13:21:21.443Z,35.35
2018-08-04T13:25:25.029Z,35.30
2018-08-04T13:29:28.595Z,35.14
2018-08-04T13:33:32.036Z,35.13
2018-08-04T13:37:35.635Z,35.15
2018-08-04T13:41:40.049Z,35.05
2018-08-04T13:45:43.559Z,35.09
2018-08-04T13:49:46.986Z,35.16
2018-08-04T13:53:50.428Z,35.23
2018-08-04T13:57:53.956Z,35.21
2018-08-04T14:01:57.405Z,35.20
2018-08-04T14:06:00.995Z,35.18
2018-08-04T14:10:04.425Z,35.21
2018-08-04T14:14:08.008Z,35.26
2018-08-04T14:18:11.514Z,35.30
2018-08-04T14:22:14.979Z,35.25
2018-08-04T14:26:18.509Z,35.17
2018-08-04T14:30:22.042Z,35.08
2018-08-04T14:34:25.479Z,35.02
2018-08-04T14:38:28.901Z,34.97
2018-08-04T14:42:32.411Z,34.95
2018-08-04T14:46:36.056Z,34.92
2018-08-04T14:50:39.547Z,34.87
2018-08-04T14:54:43.011Z,34.83
2018-08-04T14:58:46.448Z,34.85
2018-08-04T15:02:49.899Z,34.80
2018-08-04T15:06:53.348Z,34.80
2018-08-04T15:10:56.801Z,34.79
2018-08-04T15:15:00.257Z,34.75
2018-08-04T15:19:04.136Z,34.66
2018-08-04T15:23:07.555Z,34.57
2018-08-04T15:27:11.040Z,34.52
2018-08-04T15:31:14.514Z,34.48
2018-08-04T15:35:17.964Z,34.42
2018-08-04T15:39:21.415Z,34.35
2018-08-04T15:43:24.894Z,34.29
2018-08-04T15:47:28.325Z,34.23
2018-08-04T15:51:31.798Z,34.22
2018-08-04T15:55:35.231Z,34.15
2018-08-04T15:59:38.615Z,34.09
2018-08-04T16:03:42.037Z,34.05
2018-08-04T16:07:45.473Z,33.98
2018-08-04T16:11:48.881Z,33.94
2018-08-04T16:15:52.353Z,33.92
2018-08-04T16:19:55.761Z,33.88
2018-08-04T16:23:59.199Z,33.84
2018-08-04T16:28:02.680Z,33.79
2018-08-04T16:32:06.127Z,33.73
2018-08-04T16:36:09.496Z,33.68
2018-08-04T16:40:12.925Z,33.64
2018-08-04T16:44:16.405Z,33.58
2018-08-04T16:48:19.898Z,33.54
2018-08-04T16:52:23.268Z,33.47
2018-08-04T16:56:26.697Z,33.42
2018-08-04T17:00:30.132Z,33.35
2018-08-04T17:04:33.807Z,33.23
2018-08-04T17:08:37.212Z,33.13
2018-08-04T17:12:40.647Z,33.08
2018-08-04T17:16:44.109Z,33.02
2018-08-04T17:20:47.533Z,32.92
2018-08-04T17:24:50.992Z,32.85
2018-08-04T17:28:54.604Z,32.77
2018-08-04T17:32:58.183Z,32.72
2018-08-04T17:37:01.626Z,32.68
2018-08-04T17:41:05.049Z,32.62
2018-08-04T17:45:08.444Z,32.54
2018-08-04T17:49:11.852Z,32.46
2018-08-04T17:53:15.271Z,32.41
2018-08-04T17:57:18.719Z,32.38
2018-08-04T18:01:22.120Z,32.35
2018-08-04T18:05:25.533Z,32.28
2018-08-04T18:09:29.025Z,32.25
2018-08-04T18:13:32.426Z,32.21
2018-08-04T18:17:36.008Z,32.13
2018-08-04T18:21:39.477Z,32.04
2018-08-04T18:25:42.923Z,31.97
2018-08-04T18:29:46.561Z,31.87
2018-08-04T18:33:49.998Z,31.80
2018-08-04T18:37:53.563Z,31.77
2018-08-04T18:41:57.031Z,31.68
2018-08-04T18:46:00.625Z,31.61
2018-08-04T18:50:04.182Z,31.52
2018-08-04T18:54:07.926Z,31.44
2018-08-04T18:58:11.847Z,31.34
2018-08-04T19:02:15.727Z,31.24
2018-08-04T19:06:19.515Z,31.15
2018-08-04T19:10:23.332Z,31.10
2018-08-04T19:14:26.766Z,31.03
2018-08-04T19:18:30.301Z,30.98
2018-08-04T19:22:34.317Z,30.93
2018-08-04T19:26:38.066Z,30.84
2018-08-04T19:30:41.746Z,30.74
2018-08-04T19:34:46.205Z,30.65
2018-08-04T19:38:49.911Z,30.57
2018-08-04T19:42:53.588Z,30.50
2018-08-04T19:46:57.276Z,30.41
2018-08-04T19:51:00.966Z,30.34
2018-08-04T19:55:04.735Z,30.26
2018-08-04T19:59:08.479Z,30.18
2018-08-04T20:03:12.172Z,30.10
2018-08-04T20:07:15.944Z,30.02
2018-08-04T20:11:19.664Z,29.94
2018-08-04T20:15:23.410Z,29.86
2018-08-04T20:19:27.132Z,29.80
2018-08-04T20:23:30.896Z,29.74
2018-08-04T20:27:34.618Z,29.69
2018-08-04T20:31:38.451Z,29.63
2018-08-04T20:35:42.190Z,29.60
2018-08-04T20:39:45.988Z,29.50
2018-08-04T20:43:49.742Z,29.44
2018-08-04T20:47:53.703Z,29.35
2018-08-04T20:51:57.463Z,29.27
2018-08-04T20:56:01.476Z,29.19
2018-08-04T21:00:05.839Z,29.15
2018-08-04T21:04:09.685Z,29.11
2018-08-04T21:08:13.635Z,29.05
2018-08-04T21:12:17.702Z,29.01
2018-08-04T21:16:21.400Z,28.97
2018-08-04T21:20:24.917Z,28.91
2018-08-04T21:24:28.389Z,28.87
2018-08-04T21:28:31.881Z,28.84
2018-08-04T21:32:35.405Z,28.82
2018-08-04T21:36:38.919Z,28.81
2018-08-04T21:40:42.431Z,28.75
2018-08-04T21:44:45.914Z,28.72
2018-08-04T21:48:49.511Z,28.68
2018-08-04T21:52:53.083Z,28.64
2018-08-04T21:56:56.612Z,28.61
2018-08-04T22:01:05.264Z,28.55
2018-08-04T22:05:08.755Z,28.50
2018-08-04T22:09:18.963Z,28.46
2018-08-04T22:13:22.447Z,28.42
2018-08-04T22:17:25.916Z,28.40
2018-08-04T22:21:29.432Z,28.36
2018-08-04T22:25:32.920Z,28.34
2018-08-04T22:29:36.395Z,28.33
2018-08-04T22:33:39.894Z,28.33
2018-08-04T22:37:43.502Z,28.30
2018-08-04T22:41:47.016Z,28.27
2018-08-04T22:46:15.276Z,28.22
2018-08-04T22:50:18.791Z,28.18
2018-08-04T22:54:22.245Z,28.16
2018-08-04T22:58:25.814Z,28.14
2018-08-04T23:02:29.369Z,28.11
2018-08-04T23:06:32.877Z,28.08
2018-08-04T23:10:40.976Z,28.06
2018-08-04T23:14:44.534Z,28.03
2018-08-04T23:18:48.011Z,28.02
2018-08-04T23:22:51.532Z,28.01
2018-08-04T23:26:55.095Z,28.01
2018-08-04T23:30:58.593Z,27.99
2018-08-04T23:35:02.169Z,27.97
2018-08-04T23:39:07.532Z,27.95
2018-08-04T23:43:10.994Z,27.93
2018-08-04T23:47:14.498Z,27.90
2018-08-04T23:51:17.979Z,27.87
2018-08-04T23:55:21.443Z,27.84
2018-08-04T23:59:24.974Z,27.79
